Latest Weather Observations for Tarcoola

IDS60801

Issued at 5:31 am CST Sunday 29 May 2016 (issued every 30 minutes, with the page automatically refreshed every 10 minutes)

About weather observations | Map of weather stations | Latest weather observations for SA | Other Formats
Station Details ID: 016098 Name: TARCOOLA AERO Lat: -30.71 Lon: 134.58 Height: 123.0 m
Data from the previous 72 hours. | See also: Recent months at Tarcoola
Date/Time
CST
Temp
°C
App
Temp
°C
Dew
Point
Rel
Hum
%
Delta-T
°C
Wind Press
QNH
hPa
Press
MSL
hPa
Rain
since 9 am
mm
Dir
 
Spd
km/h
Gust
km/h
Spd
kts
Gust
kts
29/05:30am 5.3 2.1 3.2 86 0.9 ENE 9 11 5 6 1017.5 1017.4 0.0
29/05:00am 5.8 2.3 3.5 85 1.0 ENE 11 11 6 6 1017.5 1017.4 0.0
29/04:30am 5.5 1.9 3.2 85 1.0 ENE 11 11 6 6 1017.4 1017.3 0.0
29/04:00am 5.7 2.5 3.2 84 1.0 ENE 9 9 5 5 1017.4 1017.3 0.0
29/03:30am 6.2 2.8 3.9 85 1.0 ENE 11 13 6 7 1017.5 1017.4 0.0
29/03:00am 5.8 2.6 3.1 83 1.1 ENE 9 11 5 6 1017.6 1017.5 0.0
29/02:30am 6.1 3.4 3.6 84 1.1 E 7 9 4 5 1017.8 1017.7 0.0
29/02:00am 6.2 3.1 3.5 83 1.1 ENE 9 9 5 5 1017.8 1017.7 0.0
29/01:30am 6.3 3.6 3.5 82 1.2 ENE 7 9 4 5 1017.9 1017.8 0.0
29/01:00am 6.4 3.7 3.7 83 1.2 ENE 7 9 4 5 1018.2 1018.1 0.0
29/12:30am 6.6 4.1 3.6 81 1.3 ENE 6 7 3 4 1018.6 1018.5 0.0
29/12:00am 6.9 4.2 3.5 79 1.4 ENE 7 7 4 4 1018.8 1018.7 0.0
 
Date/Time
CST
Temp
°C
App
Temp
°C
Dew
Point
Rel
Hum
%
Delta-T
°C
Wind Press
QNH
hPa
Press
MSL
hPa
Rain
since 9 am
mm
Dir
 
Spd
km/h
Gust
km/h
Spd
kts
Gust
kts
28/11:30pm 7.5 5.0 3.9 78 1.6 NE 6 7 3 4 1019.1 1019.0 0.0
28/11:00pm 7.7 5.2 3.6 75 1.8 NE 6 7 3 4 1019.2 1019.1 0.0
28/10:30pm 8.2 5.7 4.0 75 1.8 NE 6 7 3 4 1019.1 1019.0 0.0
28/10:00pm 9.0 6.4 4.2 72 2.1 NE 7 9 4 5 1019.2 1019.1 0.0
28/09:30pm 9.3 6.8 4.7 73 2.1 NNE 7 11 4 6 1019.2 1019.1 0.0
28/09:00pm 9.6 7.2 4.4 70 2.3 NE 6 7 3 4 1019.0 1018.9 0.0
28/08:30pm 9.8 7.4 4.4 69 2.4 ENE 6 7 3 4 1018.8 1018.7 0.0
28/08:00pm 10.6 7.6 4.1 64 2.9 NE 9 13 5 7 1018.8 1018.7 0.0
28/07:30pm 11.1 8.7 4.1 62 3.1 NNW 6 7 3 4 1018.9 1018.8 0.0
28/07:00pm 12.9 9.1 4.1 55 4.0 N 13 15 7 8 1018.6 1018.5 0.0
28/06:30pm 13.7 10.0 4.3 53 4.3 NNW 13 15 7 8 1018.6 1018.5 0.0
28/06:00pm 14.2 10.7 3.7 49 4.8 NNW 11 11 6 6 1018.3 1018.2 0.0
28/05:30pm 16.0 12.7 2.4 40 6.1 NW 9 11 5 6 1018.6 1018.5 0.0
28/05:00pm 17.7 15.0 2.5 36 7.0 NW 6 11 3 6 1018.3 1018.2 0.0
28/04:30pm 17.7 14.7 2.1 35 7.1 WSW 7 15 4 8 1018.0 1017.9 0.0
28/04:00pm 18.0 15.9 1.9 34 7.3 E 2 9 1 5 1018.0 1017.9 0.0
28/03:30pm 18.3 15.0 2.6 35 7.2 WNW 9 15 5 8 1018.2 1018.1 0.0
28/03:00pm 18.1 14.9 2.8 36 7.1 WSW 9 17 5 9 1018.3 1018.2 0.0
28/02:30pm 18.3 14.8 3.4 37 7.0 W 11 20 6 11 1018.4 1018.3 0.0
28/02:00pm 17.7 14.5 2.8 37 6.9 W 9 17 5 9 1018.7 1018.6 0.0
28/01:30pm 17.3 14.6 3.6 40 6.4 W 7 11 4 6 1019.1 1019.0 0.0
28/01:00pm 16.9 14.4 3.6 41 6.2 W 6 20 3 11 1019.6 1019.5 0.0
28/12:30pm 16.9 13.1 3.9 42 6.1 WSW 13 20 7 11 1020.1 1020.0 0.0
28/12:00pm 16.4 12.7 4.4 45 5.6 SW 13 20 7 11 1020.5 1020.3 0.0
28/11:30am 16.1 12.3 3.9 44 5.7 WSW 13 20 7 11 1020.9 1020.7 0.0
28/11:00am 15.6 11.8 5.8 52 4.7 W 15 20 8 11 1021.3 1021.2 0.0
28/10:30am 15.0 12.2 6.8 58 4.0 WSW 11 17 6 9 1021.5 1021.4 0.0
28/10:00am 13.7 10.3 7.5 66 3.1 WSW 15 20 8 11 1021.7 1021.6 0.0
28/09:30am 12.7 10.2 8.0 73 2.3 WSW 11 20 6 11 1021.7 1021.6 0.0
28/09:00am 10.7 7.7 7.8 82 1.4 WNW 13 19 7 10 1021.2 1021.1 0.0
28/08:30am 8.4 6.4 7.2 92 0.6 N 7 9 4 5 1020.8 1020.6 0.0
28/08:00am 5.5 3.1 4.5 93 0.4 W 6 7 3 4 1020.3 1020.2 0.0
28/07:30am 4.0 1.3 2.8 92 0.5 NNE 6 7 3 4 1020.0 1019.9 0.0
28/07:00am 3.6 2.0 2.3 91 0.5 CALM 0 0 0 0 1019.8 1019.7 0.0
28/06:30am 3.8 2.2 2.5 91 0.5 CALM 0 0 0 0 1019.5 1019.4 0.0
28/06:00am 4.5 3.0 3.2 91 0.5 CALM 0 0 0 0 1019.6 1019.5 0.0
28/05:30am 4.7 3.2 3.2 90 0.6 CALM 0 0 0 0 1019.6 1019.5 0.0
28/05:00am 5.4 4.1 3.9 90 0.6 CALM 0 0 0 0 1019.5 1019.4 0.0
28/04:30am 6.3 3.8 4.8 90 0.7 WSW 7 9 4 5 1019.4 1019.3 0.0
28/04:00am 6.8 4.0 5.1 89 0.8 WSW 9 9 5 5 1019.3 1019.2 0.0
28/03:30am 6.8 4.4 5.1 89 0.7 SW 7 9 4 5 1019.3 1019.2 0.0
28/03:00am 6.6 4.3 4.9 89 0.7 WSW 6 7 3 4 1019.5 1019.4 0.0
28/02:30am 6.9 4.5 5.1 88 0.8 W 7 9 4 5 1019.5 1019.4 0.0
28/02:00am 7.2 4.7 5.0 86 1.0 W 7 7 4 4 1019.5 1019.4 0.0
28/01:30am 7.1 5.9 4.8 85 1.0 CALM 0 0 0 0 1019.6 1019.5 0.0
28/01:00am 8.0 5.8 5.1 82 1.3 WSW 6 6 3 3 1019.8 1019.7 0.0
28/12:30am 9.2 6.6 6.1 81 1.4 WSW 9 11 5 6 1020.1 1020.0 0.0
28/12:00am 10.2 7.3 6.5 78 1.7 WSW 11 13 6 7 1020.1 1020.0 0.0
 
Date/Time
CST
Temp
°C
App
Temp
°C
Dew
Point
Rel
Hum
%
Delta-T
°C
Wind Press
QNH
hPa
Press
MSL
hPa
Rain
since 9 am
mm
Dir
 
Spd
km/h
Gust
km/h
Spd
kts
Gust
kts
27/11:30pm 10.7 7.8 6.6 76 1.9 WSW 11 13 6 7 1019.9 1019.8 0.0
27/11:00pm 11.0 7.7 6.6 74 2.1 WSW 13 17 7 9 1019.9 1019.8 0.0
27/10:30pm 11.1 8.2 6.6 74 2.1 W 11 15 6 8 1019.9 1019.8 0.0
27/10:00pm 11.7 8.4 6.4 70 2.5 WSW 13 15 7 8 1020.0 1019.9 0.0
27/09:30pm 11.9 8.9 6.2 68 2.7 WSW 11 15 6 8 1019.9 1019.8 0.0
27/09:00pm 12.5 9.1 5.7 63 3.2 WSW 13 15 7 8 1019.7 1019.6 0.0
27/08:30pm 13.6 9.4 5.5 58 3.8 SW 17 20 9 11 1019.4 1019.3 0.0
27/08:00pm 14.6 9.4 5.4 54 4.4 WSW 22 35 12 19 1019.2 1019.1 0.0
27/07:30pm 15.3 9.8 6.1 54 4.5 SW 24 39 13 21 1018.9 1018.8 0.0
27/07:00pm 15.6 9.3 5.8 52 4.7 SW 28 41 15 22 1018.6 1018.5 0.0
27/06:30pm 16.2 9.1 6.6 53 4.7 WSW 33 48 18 26 1018.2 1018.1 0.0
27/06:00pm 16.6 9.3 7.0 53 4.8 SW 35 48 19 26 1017.6 1017.5 0.0
27/05:53pm 16.7 9.9 7.1 53 4.8 SW 32 48 17 26 1017.5 1017.4 0.0
27/05:30pm 16.7 12.0 7.9 56 4.5 WSW 22 30 12 16 1017.4 1017.3 0.0
27/05:00pm 17.2 10.8 8.4 56 4.5 WSW 32 43 17 23 1017.0 1016.9 0.0
27/04:30pm 17.2 10.8 9.4 60 4.1 WSW 33 46 18 25 1017.0 1016.9 0.0
27/04:04pm 16.5 8.8 10.1 66 3.4 WSW 41 59 22 32 1016.9 1016.8 0.0
27/04:00pm 16.8 8.7 10.0 64 3.6 WSW 43 59 23 32 1016.8 1016.7 0.0
27/03:50pm 17.9 10.8 7.9 52 5.1 WSW 35 56 19 30 1016.7 1016.6 0.0
27/03:30pm 18.2 12.0 9.5 57 4.6 WSW 32 46 17 25 1016.8 1016.7 0.0
27/03:05pm 17.2 11.4 9.4 60 4.1 WSW 30 48 16 26 1016.8 1016.7 0.0
27/03:00pm 17.8 12.2 8.9 56 4.6 WSW 28 43 15 23 1016.6 1016.5 0.0
27/02:49pm 18.0 12.4 8.6 54 4.9 WSW 28 46 15 25 1016.5 1016.4 0.0
27/02:30pm 19.1 13.0 8.4 50 5.6 WSW 30 41 16 22 1016.4 1016.3 0.0
27/02:00pm 19.0 12.1 7.4 47 5.9 WSW 33 46 18 25 1016.7 1016.6 0.0
27/01:44pm 18.2 9.6 6.7 47 5.8 WSW 41 59 22 32 1016.8 1016.7 0.0
27/01:30pm 18.7 11.0 5.2 41 6.6 WSW 35 52 19 28 1016.6 1016.5 0.0
27/01:00pm 19.5 11.9 5.6 40 6.9 WSW 35 50 19 27 1016.9 1016.8 0.0
27/12:30pm 18.7 11.0 5.2 41 6.6 WSW 35 48 19 26 1017.3 1017.2 0.0
27/12:00pm 18.3 10.9 4.8 41 6.5 W 33 46 18 25 1017.8 1017.7 0.0
27/11:30am 17.8 11.3 6.7 48 5.5 WSW 30 41 16 22 1018.1 1018.0 0.0
27/11:00am 17.3 11.1 6.2 48 5.5 WSW 28 39 15 21 1018.5 1018.4 0.0
27/10:30am 16.2 10.0 6.1 51 4.9 WSW 28 37 15 20 1018.7 1018.6 0.0
27/10:00am 14.9 9.3 7.2 60 3.8 WSW 26 33 14 18 1018.7 1018.6 0.0
27/09:30am 14.0 9.0 8.2 68 2.9 W 24 33 13 18 1018.5 1018.4 0.0
27/09:00am 12.5 8.4 8.6 77 1.9 W 20 30 11 16 1018.6 1018.5 0.0
27/08:30am 11.9 8.4 8.7 81 1.6 W 17 22 9 12 1018.3 1018.2 0.0
27/08:00am 11.2 8.0 8.6 84 1.3 W 15 19 8 10 1018.0 1017.9 0.0
27/07:30am 11.2 7.7 8.6 84 1.3 W 17 20 9 11 1017.9 1017.8 0.0
27/07:00am 10.8 7.6 8.4 85 1.2 W 15 20 8 11 1017.6 1017.5 0.0
27/06:30am 10.5 7.6 8.3 86 1.1 W 13 15 7 8 1017.4 1017.3 0.0
27/06:00am 10.4 7.5 8.2 86 1.1 WNW 13 15 7 8 1017.0 1016.9 0.0
27/05:30am 10.5 8.0 8.3 86 1.1 WSW 11 15 6 8 1016.9 1016.8 0.0
27/05:00am 10.4 8.3 8.3 87 1.0 WSW 9 11 5 6 1016.7 1016.6 0.0
27/04:30am 11.1 9.2 9.0 87 1.0 WSW 9 15 5 8 1016.7 1016.6 0.0
27/04:00am 11.0 9.1 8.9 87 1.0 W 9 11 5 6 1016.8 1016.7 0.0
27/03:30am 11.6 9.0 9.3 86 1.2 W 13 17 7 9 1016.8 1016.7 0.0
27/03:00am 11.3 9.0 8.9 85 1.2 W 11 15 6 8 1016.9 1016.8 0.0
27/02:30am 11.7 9.1 9.4 86 1.2 WNW 13 17 7 9 1016.8 1016.7 0.0
27/02:00am 11.6 11.4 9.0 84 1.3 CALM 0 9 0 5 1016.7 1016.6 0.0
27/01:30am 12.3 12.2 9.5 83 1.4 CALM 0 0 0 0 1016.7 1016.6 0.0
27/01:00am 12.1 11.2 9.1 82 1.5 W 4 7 2 4 1016.7 1016.6 0.0
27/12:30am 12.3 10.7 8.8 79 1.8 WSW 7 9 4 5 1016.7 1016.6 0.0
27/12:00am 13.0 10.8 9.3 78 1.9 WSW 11 13 6 7 1017.0 1016.9 0.0
 
Date/Time
CST
Temp
°C
App
Temp
°C
Dew
Point
Rel
Hum
%
Delta-T
°C
Wind Press
QNH
hPa
Press
MSL
hPa
Rain
since 9 am
mm
Dir
 
Spd
km/h
Gust
km/h
Spd
kts
Gust
kts
26/11:30pm 12.9 11.0 9.0 77 2.0 WSW 9 13 5 7 1016.6 1016.5 0.0
26/11:00pm 12.4 10.1 9.1 80 1.7 WSW 11 13 6 7 1016.8 1016.7 0.0
26/10:30pm 12.4 10.1 8.9 79 1.8 WSW 11 13 6 7 1016.6 1016.5 0.0
26/10:00pm 12.2 9.8 8.7 79 1.8 W 11 11 6 6 1016.4 1016.3 0.0
26/09:30pm 12.3 10.8 9.0 80 1.7 WSW 7 7 4 4 1016.4 1016.3 0.0
26/09:00pm 13.1 11.7 9.4 78 1.9 WSW 7 9 4 5 1016.4 1016.3 0.0
26/08:30pm 13.9 12.5 9.7 76 2.2 WSW 7 9 4 5 1016.4 1016.3 0.0
26/08:00pm 14.1 12.8 9.9 76 2.2 WSW 7 9 4 5 1016.1 1016.0 0.0
26/07:30pm 14.4 12.7 9.8 74 2.4 WSW 9 9 5 5 1015.6 1015.5 0.0
26/07:00pm 14.8 13.5 9.8 72 2.6 WSW 7 9 4 5 1015.1 1015.0 0.0
26/06:30pm 15.1 13.2 9.2 68 3.0 W 9 11 5 6 1014.6 1014.5 0.0
26/06:00pm 15.8 13.3 8.3 61 3.8 WSW 11 13 6 7 1014.4 1014.3 0.0
26/05:30pm 17.0 14.8 7.9 55 4.6 SW 9 11 5 6 1013.9 1013.7 0.0
26/05:00pm 17.7 15.5 7.7 52 5.1 SW 9 15 5 8 1013.6 1013.4 0.0
26/04:30pm 18.0 14.9 7.4 50 5.4 SW 13 17 7 9 1013.8 1013.6 0.0
26/04:00pm 18.4 16.3 8.1 51 5.3 WSW 9 13 5 7 1013.6 1013.4 0.0
26/03:30pm 18.2 15.2 7.9 51 5.3 WSW 13 19 7 10 1013.3 1013.1 0.0
26/03:00pm 18.0 14.5 7.4 50 5.4 SW 15 22 8 12 1013.6 1013.4 0.0
26/02:30pm 18.3 15.6 9.1 55 4.8 WSW 13 20 7 11 1013.4 1013.2 0.0
26/02:00pm 17.5 14.0 8.9 57 4.5 WSW 17 22 9 12 1013.3 1013.1 0.0
26/01:30pm 18.5 15.8 9.0 54 5.0 SW 13 20 7 11 1013.4 1013.2 0.0
26/01:00pm 17.1 14.2 9.8 62 3.9 SW 15 24 8 13 1013.8 1013.6 0.0
26/12:30pm 17.2 15.4 11.0 67 3.4 SW 11 17 6 9 1013.9 1013.7 0.0
26/12:00pm 17.2 15.1 11.2 68 3.3 WSW 13 19 7 10 1014.2 1014.0 0.0
26/11:30am 15.5 13.8 11.3 76 2.3 SW 11 15 6 8 1014.4 1014.3 0.0
26/11:00am 14.5 13.2 11.3 81 1.7 SW 9 13 5 7 1014.7 1014.6 0.0
26/10:30am 13.9 12.8 11.8 87 1.1 WSW 9 15 5 8 1014.8 1014.7 0.0
26/10:00am 13.5 12.1 12.2 92 0.7 W 11 15 6 8 1014.6 1014.5 0.0
26/09:30am 12.9 11.8 11.8 93 0.6 WSW 9 13 5 7 1014.2 1014.0 0.0
26/09:00am 12.5 11.2 11.4 93 0.6 SW 9 11 5 6 1014.1 1013.9 2.6
26/08:30am 12.4 11.5 11.5 94 0.5 WNW 7 13 4 7 1014.2 1014.0 2.6
26/08:00am 11.9 11.5 11.0 94 0.5 NW 4 7 2 4 1014.1 1013.9 2.6
26/07:30am 11.5 10.4 10.6 94 0.5 SW 7 7 4 4 1014.0 1013.8 2.6
26/07:00am 12.2 10.9 11.3 94 0.5 SW 9 13 5 7 1013.4 1013.2 2.6
26/06:30am 12.0 9.9 11.1 94 0.5 SW 13 19 7 10 1013.0 1012.8 2.6
26/06:00am 12.1 9.6 11.2 94 0.5 SW 15 20 8 11 1012.6 1012.4 2.6

Other Formats:

Comma delimited format used in spreadsheet applications
http://www.bom.gov.au/fwo/IDS60801/IDS60801.94655.axf

JavaScript Object Notation format (JSON) in row-major order
http://www.bom.gov.au/fwo/IDS60801/IDS60801.94655.json